sensor_id;sensor_type;location;lat;lon;timestamp;temperature;humidity
66740;DHT22;53653;52.188;8.602;2023-03-23T00:01:18;11.80;85.07
66740;DHT22;53653;52.188;8.602;2023-03-23T00:03:49;11.73;85.47
66740;DHT22;53653;52.188;8.602;2023-03-23T00:06:16;11.77;85.37
66740;DHT22;53653;52.188;8.602;2023-03-23T00:08:47;11.79;85.56
66740;DHT22;53653;52.188;8.602;2023-03-23T00:11:18;11.76;85.84
66740;DHT22;53653;52.188;8.602;2023-03-23T00:13:46;11.79;86.09
66740;DHT22;53653;52.188;8.602;2023-03-23T00:16:13;11.75;86.19
66740;DHT22;53653;52.188;8.602;2023-03-23T00:21:10;11.63;86.91
66740;DHT22;53653;52.188;8.602;2023-03-23T00:23:36;11.49;87.52
66740;DHT22;53653;52.188;8.602;2023-03-23T00:26:03;11.45;87.90
66740;DHT22;53653;52.188;8.602;2023-03-23T00:28:29;11.47;87.80
66740;DHT22;53653;52.188;8.602;2023-03-23T00:30:59;11.39;87.95
66740;DHT22;53653;52.188;8.602;2023-03-23T00:33:28;11.46;87.90
66740;DHT22;53653;52.188;8.602;2023-03-23T00:35:54;11.46;87.59
66740;DHT22;53653;52.188;8.602;2023-03-23T00:38:24;11.38;88.17
66740;DHT22;53653;52.188;8.602;2023-03-23T00:40:50;11.40;88.16
66740;DHT22;53653;52.188;8.602;2023-03-23T00:43:18;11.34;88.01
66740;DHT22;53653;52.188;8.602;2023-03-23T00:45:45;11.34;88.16
66740;DHT22;53653;52.188;8.602;2023-03-23T00:48:14;11.38;87.45
66740;DHT22;53653;52.188;8.602;2023-03-23T00:50:41;11.49;87.46
66740;DHT22;53653;52.188;8.602;2023-03-23T00:53:07;11.42;87.69
66740;DHT22;53653;52.188;8.602;2023-03-23T00:55:32;11.39;87.57
66740;DHT22;53653;52.188;8.602;2023-03-23T00:57:59;11.45;87.65
66740;DHT22;53653;52.188;8.602;2023-03-23T01:00:25;11.46;87.37
66740;DHT22;53653;52.188;8.602;2023-03-23T01:02:53;11.51;87.19
66740;DHT22;53653;52.188;8.602;2023-03-23T01:05:18;11.58;86.86
66740;DHT22;53653;52.188;8.602;2023-03-23T01:07:44;11.49;87.18
66740;DHT22;53653;52.188;8.602;2023-03-23T01:10:11;11.46;87.20
66740;DHT22;53653;52.188;8.602;2023-03-23T01:12:46;11.52;86.92
66740;DHT22;53653;52.188;8.602;2023-03-23T01:15:16;11.49;87.01
66740;DHT22;53653;52.188;8.602;2023-03-23T01:17:43;11.46;87.38
66740;DHT22;53653;52.188;8.602;2023-03-23T01:20:09;11.43;87.33
66740;DHT22;53653;52.188;8.602;2023-03-23T01:22:36;11.36;87.51
66740;DHT22;53653;52.188;8.602;2023-03-23T01:25:02;11.36;87.76
66740;DHT22;53653;52.188;8.602;2023-03-23T01:27:27;11.39;87.22
66740;DHT22;53653;52.188;8.602;2023-03-23T01:29:53;11.45;86.92
66740;DHT22;53653;52.188;8.602;2023-03-23T01:32:18;11.53;86.48
66740;DHT22;53653;52.188;8.602;2023-03-23T01:34:45;11.55;86.34
66740;DHT22;53653;52.188;8.602;2023-03-23T01:37:11;11.45;86.70
66740;DHT22;53653;52.188;8.602;2023-03-23T01:39:36;11.51;86.11
66740;DHT22;53653;52.188;8.602;2023-03-23T01:42:03;11.52;86.28
66740;DHT22;53653;52.188;8.602;2023-03-23T01:47:06;11.59;85.77
66740;DHT22;53653;52.188;8.602;2023-03-23T01:49:42;11.63;85.65
66740;DHT22;53653;52.188;8.602;2023-03-23T01:52:16;11.76;85.19
66740;DHT22;53653;52.188;8.602;2023-03-23T01:54:49;11.67;85.31
66740;DHT22;53653;52.188;8.602;2023-03-23T01:57:17;11.73;85.11
66740;DHT22;53653;52.188;8.602;2023-03-23T01:59:48;11.73;85.03
66740;DHT22;53653;52.188;8.602;2023-03-23T02:02:37;11.73;85.02
66740;DHT22;53653;52.188;8.602;2023-03-23T02:05:10;11.80;84.81
66740;DHT22;53653;52.188;8.602;2023-03-23T02:07:36;11.86;84.21
66740;DHT22;53653;52.188;8.602;2023-03-23T02:10:04;11.84;84.42
66740;DHT22;53653;52.188;8.602;2023-03-23T02:12:32;11.94;83.75
66740;DHT22;53653;52.188;8.602;2023-03-23T02:14:58;11.86;84.09
66740;DHT22;53653;52.188;8.602;2023-03-23T02:17:33;11.93;83.89
66740;DHT22;53653;52.188;8.602;2023-03-23T02:20:27;11.84;84.18
66740;DHT22;53653;52.188;8.602;2023-03-23T02:23:27;11.91;83.76
66740;DHT22;53653;52.188;8.602;2023-03-23T02:26:18;11.94;83.66
66740;DHT22;53653;52.188;8.602;2023-03-23T02:31:33;12.03;83.17
66740;DHT22;53653;52.188;8.602;2023-03-23T02:37:21;11.93;83.48
66740;DHT22;53653;52.188;8.602;2023-03-23T02:39:52;11.97;83.36
66740;DHT22;53653;52.188;8.602;2023-03-23T02:42:24;12.00;82.94
66740;DHT22;53653;52.188;8.602;2023-03-23T02:44:54;11.98;83.07
66740;DHT22;53653;52.188;8.602;2023-03-23T02:47:23;12.07;82.47
66740;DHT22;53653;52.188;8.602;2023-03-23T02:49:52;12.01;82.75
66740;DHT22;53653;52.188;8.602;2023-03-23T02:52:33;12.01;82.14
66740;DHT22;53653;52.188;8.602;2023-03-23T02:55:03;11.95;81.06
66740;DHT22;53653;52.188;8.602;2023-03-23T02:57:30;11.93;81.55
66740;DHT22;53653;52.188;8.602;2023-03-23T02:59:58;11.91;80.54
66740;DHT22;53653;52.188;8.602;2023-03-23T03:02:29;12.03;78.85
66740;DHT22;53653;52.188;8.602;2023-03-23T03:13:16;12.08;79.18
66740;DHT22;53653;52.188;8.602;2023-03-23T03:16:07;11.98;79.92
66740;DHT22;53653;52.188;8.602;2023-03-23T03:21:14;12.01;80.30
66740;DHT22;53653;52.188;8.602;2023-03-23T03:23:44;12.00;80.44
66740;DHT22;53653;52.188;8.602;2023-03-23T03:26:12;11.91;81.10
66740;DHT22;53653;52.188;8.602;2023-03-23T03:28:48;11.94;80.88
66740;DHT22;53653;52.188;8.602;2023-03-23T03:31:24;11.97;80.34
66740;DHT22;53653;52.188;8.602;2023-03-23T03:33:51;11.90;80.46
66740;DHT22;53653;52.188;8.602;2023-03-23T03:36:24;11.90;80.09
66740;DHT22;53653;52.188;8.602;2023-03-23T03:38:51;11.79;80.58
66740;DHT22;53653;52.188;8.602;2023-03-23T03:41:19;11.69;80.94
66740;DHT22;53653;52.188;8.602;2023-03-23T03:43:46;11.77;80.43
66740;DHT22;53653;52.188;8.602;2023-03-23T03:46:11;11.73;80.57
66740;DHT22;53653;52.188;8.602;2023-03-23T03:48:38;11.75;80.70
66740;DHT22;53653;52.188;8.602;2023-03-23T03:51:03;11.73;80.53
66740;DHT22;53653;52.188;8.602;2023-03-23T03:53:32;11.77;80.40
66740;DHT22;53653;52.188;8.602;2023-03-23T03:55:57;11.80;80.18
66740;DHT22;53653;52.188;8.602;2023-03-23T03:58:26;11.77;80.30
66740;DHT22;53653;52.188;8.602;2023-03-23T04:01:06;11.73;80.26
66740;DHT22;53653;52.188;8.602;2023-03-23T04:03:37;11.70;80.06
66740;DHT22;53653;52.188;8.602;2023-03-23T04:06:05;11.72;80.30
66740;DHT22;53653;52.188;8.602;2023-03-23T04:08:33;11.73;80.36
66740;DHT22;53653;52.188;8.602;2023-03-23T04:10:58;11.70;80.67
66740;DHT22;53653;52.188;8.602;2023-03-23T04:13:24;11.70;80.62
66740;DHT22;53653;52.188;8.602;2023-03-23T04:16:14;11.61;81.26
66740;DHT22;53653;52.188;8.602;2023-03-23T04:18:42;11.65;81.25
66740;DHT22;53653;52.188;8.602;2023-03-23T04:21:08;11.58;81.68
66740;DHT22;53653;52.188;8.602;2023-03-23T04:23:34;11.61;81.64
66740;DHT22;53653;52.188;8.602;2023-03-23T04:26:03;11.63;81.58
66740;DHT22;53653;52.188;8.602;2023-03-23T04:28:35;11.67;81.59
66740;DHT22;53653;52.188;8.602;2023-03-23T04:31:34;11.56;82.17
66740;DHT22;53653;52.188;8.602;2023-03-23T04:34:12;11.65;81.84
66740;DHT22;53653;52.188;8.602;2023-03-23T04:36:45;11.63;82.01
66740;DHT22;53653;52.188;8.602;2023-03-23T04:39:19;11.62;81.94
66740;DHT22;53653;52.188;8.602;2023-03-23T04:41:45;11.63;82.05
66740;DHT22;53653;52.188;8.602;2023-03-23T04:44:31;11.70;81.78
66740;DHT22;53653;52.188;8.602;2023-03-23T04:47:06;11.70;81.83
66740;DHT22;53653;52.188;8.602;2023-03-23T04:49:37;11.63;82.09
66740;DHT22;53653;52.188;8.602;2023-03-23T04:52:27;11.66;81.86
66740;DHT22;53653;52.188;8.602;2023-03-23T04:54:56;11.72;81.78
66740;DHT22;53653;52.188;8.602;2023-03-23T04:57:23;11.79;81.60
66740;DHT22;53653;52.188;8.602;2023-03-23T05:00:12;11.75;81.82
66740;DHT22;53653;52.188;8.602;2023-03-23T05:02:43;11.76;81.96
66740;DHT22;53653;52.188;8.602;2023-03-23T05:05:11;11.76;81.85
66740;DHT22;53653;52.188;8.602;2023-03-23T05:07:38;11.84;81.75
66740;DHT22;53653;52.188;8.602;2023-03-23T05:10:05;11.83;81.75
66740;DHT22;53653;52.188;8.602;2023-03-23T05:12:33;11.82;81.59
66740;DHT22;53653;52.188;8.602;2023-03-23T05:15:05;11.87;81.55
66740;DHT22;53653;52.188;8.602;2023-03-23T05:17:33;11.86;81.54
66740;DHT22;53653;52.188;8.602;2023-03-23T05:20:04;11.86;81.66
66740;DHT22;53653;52.188;8.602;2023-03-23T05:22:37;11.87;81.54
66740;DHT22;53653;52.188;8.602;2023-03-23T05:25:06;11.95;81.14
66740;DHT22;53653;52.188;8.602;2023-03-23T05:27:35;11.89;81.43
66740;DHT22;53653;52.188;8.602;2023-03-23T05:30:10;11.79;81.76
66740;DHT22;53653;52.188;8.602;2023-03-23T05:32:38;11.94;81.08
66740;DHT22;53653;52.188;8.602;2023-03-23T05:35:21;11.90;81.05
66740;DHT22;53653;52.188;8.602;2023-03-23T05:37:50;11.89;81.23
66740;DHT22;53653;52.188;8.602;2023-03-23T05:40:18;11.79;81.52
66740;DHT22;53653;52.188;8.602;2023-03-23T05:42:52;11.76;81.64
66740;DHT22;53653;52.188;8.602;2023-03-23T05:45:25;11.77;81.50
66740;DHT22;53653;52.188;8.602;2023-03-23T05:47:51;11.76;81.60
66740;DHT22;53653;52.188;8.602;2023-03-23T05:50:20;11.76;81.52
66740;DHT22;53653;52.188;8.602;2023-03-23T05:52:46;11.72;81.66
66740;DHT22;53653;52.188;8.602;2023-03-23T05:55:13;11.79;81.43
66740;DHT22;53653;52.188;8.602;2023-03-23T05:57:44;11.86;81.17
66740;DHT22;53653;52.188;8.602;2023-03-23T06:00:20;11.83;81.39
66740;DHT22;53653;52.188;8.602;2023-03-23T06:02:55;11.90;81.15
66740;DHT22;53653;52.188;8.602;2023-03-23T06:05:28;11.90;81.14
66740;DHT22;53653;52.188;8.602;2023-03-23T06:07:54;11.90;81.09
66740;DHT22;53653;52.188;8.602;2023-03-23T06:10:21;11.98;80.97
66740;DHT22;53653;52.188;8.602;2023-03-23T06:12:53;11.97;80.80
66740;DHT22;53653;52.188;8.602;2023-03-23T06:15:29;12.08;80.74
66740;DHT22;53653;52.188;8.602;2023-03-23T06:18:09;12.10;80.58
66740;DHT22;53653;52.188;8.602;2023-03-23T06:20:44;12.14;80.62
66740;DHT22;53653;52.188;8.602;2023-03-23T06:23:34;12.13;80.59
66740;DHT22;53653;52.188;8.602;2023-03-23T06:26:03;12.14;80.51
66740;DHT22;53653;52.188;8.602;2023-03-23T06:28:31;12.21;80.34
66740;DHT22;53653;52.188;8.602;2023-03-23T06:31:05;12.18;80.45
66740;DHT22;53653;52.188;8.602;2023-03-23T06:33:34;12.16;80.59
66740;DHT22;53653;52.188;8.602;2023-03-23T06:36:11;12.25;80.36
66740;DHT22;53653;52.188;8.602;2023-03-23T06:38:46;12.30;80.02
66740;DHT22;53653;52.188;8.602;2023-03-23T06:41:14;12.34;79.88
66740;DHT22;53653;52.188;8.602;2023-03-23T06:43:39;12.41;79.71
66740;DHT22;53653;52.188;8.602;2023-03-23T06:46:11;12.52;79.23
66740;DHT22;53653;52.188;8.602;2023-03-23T06:48:39;12.73;78.42
66740;DHT22;53653;52.188;8.602;2023-03-23T06:51:06;12.80;78.35
66740;DHT22;53653;52.188;8.602;2023-03-23T06:53:34;12.79;78.32
66740;DHT22;53653;52.188;8.602;2023-03-23T06:56:00;12.78;78.28
66740;DHT22;53653;52.188;8.602;2023-03-23T07:01:29;12.95;77.27
66740;DHT22;53653;52.188;8.602;2023-03-23T07:03:58;12.90;77.36
66740;DHT22;53653;52.188;8.602;2023-03-23T07:06:37;12.90;77.65
66740;DHT22;53653;52.188;8.602;2023-03-23T07:09:06;13.04;77.00
66740;DHT22;53653;52.188;8.602;2023-03-23T07:11:32;12.93;77.49
66740;DHT22;53653;52.188;8.602;2023-03-23T07:14:02;12.95;77.62
66740;DHT22;53653;52.188;8.602;2023-03-23T07:16:28;12.97;77.09
66740;DHT22;53653;52.188;8.602;2023-03-23T07:18:53;13.00;76.87
66740;DHT22;53653;52.188;8.602;2023-03-23T07:21:19;13.07;76.71
66740;DHT22;53653;52.188;8.602;2023-03-23T07:23:45;13.09;76.67
66740;DHT22;53653;52.188;8.602;2023-03-23T07:26:17;13.26;76.12
66740;DHT22;53653;52.188;8.602;2023-03-23T07:28:50;13.55;75.37
66740;DHT22;53653;52.188;8.602;2023-03-23T07:31:36;13.46;75.60
66740;DHT22;53653;52.188;8.602;2023-03-23T07:34:02;13.37;75.65
66740;DHT22;53653;52.188;8.602;2023-03-23T07:36:40;13.44;75.41
66740;DHT22;53653;52.188;8.602;2023-03-23T07:39:07;13.43;75.43
66740;DHT22;53653;52.188;8.602;2023-03-23T07:41:33;13.53;75.27
66740;DHT22;53653;52.188;8.602;2023-03-23T07:44:03;13.65;75.29
66740;DHT22;53653;52.188;8.602;2023-03-23T07:46:33;13.62;74.76
66740;DHT22;53653;52.188;8.602;2023-03-23T07:49:19;13.51;74.84
66740;DHT22;53653;52.188;8.602;2023-03-23T07:51:59;13.54;74.83
66740;DHT22;53653;52.188;8.602;2023-03-23T07:54:29;13.58;75.25
66740;DHT22;53653;52.188;8.602;2023-03-23T07:57:03;13.64;74.93
66740;DHT22;53653;52.188;8.602;2023-03-23T07:59:31;13.44;75.19
66740;DHT22;53653;52.188;8.602;2023-03-23T08:01:58;13.38;75.07
66740;DHT22;53653;52.188;8.602;2023-03-23T08:04:42;13.40;75.52
66740;DHT22;53653;52.188;8.602;2023-03-23T08:07:22;13.43;75.06
66740;DHT22;53653;52.188;8.602;2023-03-23T08:10:07;13.40;75.58
66740;DHT22;53653;52.188;8.602;2023-03-23T08:12:42;13.41;75.77
66740;DHT22;53653;52.188;8.602;2023-03-23T08:15:26;13.44;75.63
66740;DHT22;53653;52.188;8.602;2023-03-23T08:18:04;13.47;75.79
66740;DHT22;53653;52.188;8.602;2023-03-23T08:20:50;13.37;75.41
66740;DHT22;53653;52.188;8.602;2023-03-23T08:23:36;13.46;75.59
66740;DHT22;53653;52.188;8.602;2023-03-23T08:26:20;13.44;75.59
66740;DHT22;53653;52.188;8.602;2023-03-23T08:29:13;13.51;75.65
66740;DHT22;53653;52.188;8.602;2023-03-23T08:32:14;13.57;75.18
66740;DHT22;53653;52.188;8.602;2023-03-23T08:34:40;13.48;75.58
66740;DHT22;53653;52.188;8.602;2023-03-23T08:37:27;13.59;74.91
66740;DHT22;53653;52.188;8.602;2023-03-23T08:40:02;13.55;75.08
66740;DHT22;53653;52.188;8.602;2023-03-23T08:42:49;13.65;75.06
66740;DHT22;53653;52.188;8.602;2023-03-23T08:45:34;13.58;74.92
66740;DHT22;53653;52.188;8.602;2023-03-23T08:48:25;13.54;74.85
66740;DHT22;53653;52.188;8.602;2023-03-23T08:51:13;13.54;74.97
66740;DHT22;53653;52.188;8.602;2023-03-23T08:53:48;13.44;75.64
66740;DHT22;53653;52.188;8.602;2023-03-23T08:56:45;13.41;75.48
66740;DHT22;53653;52.188;8.602;2023-03-23T08:59:36;13.27;75.40
66740;DHT22;53653;52.188;8.602;2023-03-23T09:02:22;13.37;75.74
66740;DHT22;53653;52.188;8.602;2023-03-23T09:05:13;13.44;75.43
66740;DHT22;53653;52.188;8.602;2023-03-23T09:08:05;13.57;74.96
66740;DHT22;53653;52.188;8.602;2023-03-23T09:10:31;13.68;74.81
66740;DHT22;53653;52.188;8.602;2023-03-23T09:12:58;13.82;74.41
66740;DHT22;53653;52.188;8.602;2023-03-23T09:15:24;13.89;73.75
66740;DHT22;53653;52.188;8.602;2023-03-23T09:17:51;13.85;73.26
66740;DHT22;53653;52.188;8.602;2023-03-23T09:20:20;13.89;73.60
66740;DHT22;53653;52.188;8.602;2023-03-23T09:22:51;13.83;73.54
66740;DHT22;53653;52.188;8.602;2023-03-23T09:25:19;13.88;73.98
66740;DHT22;53653;52.188;8.602;2023-03-23T09:27:49;13.95;73.38
66740;DHT22;53653;52.188;8.602;2023-03-23T09:30:18;13.89;72.88
66740;DHT22;53653;52.188;8.602;2023-03-23T09:32:44;13.90;72.82
66740;DHT22;53653;52.188;8.602;2023-03-23T09:35:11;13.95;72.71
66740;DHT22;53653;52.188;8.602;2023-03-23T09:37:39;13.96;72.41
66740;DHT22;53653;52.188;8.602;2023-03-23T09:40:10;13.96;72.42
66740;DHT22;53653;52.188;8.602;2023-03-23T09:51:00;13.94;72.26
66740;DHT22;53653;52.188;8.602;2023-03-23T09:53:53;13.88;72.17
66740;DHT22;53653;52.188;8.602;2023-03-23T09:56:20;13.82;72.67
66740;DHT22;53653;52.188;8.602;2023-03-23T09:59:08;13.81;72.38
66740;DHT22;53653;52.188;8.602;2023-03-23T10:01:47;13.77;73.25
66740;DHT22;53653;52.188;8.602;2023-03-23T10:04:47;13.78;74.32
66740;DHT22;53653;52.188;8.602;2023-03-23T10:07:24;13.74;74.77
66740;DHT22;53653;52.188;8.602;2023-03-23T10:09:56;13.74;75.82
66740;DHT22;53653;52.188;8.602;2023-03-23T10:12:49;13.81;73.86
66740;DHT22;53653;52.188;8.602;2023-03-23T10:15:21;13.71;74.02
66740;DHT22;53653;52.188;8.602;2023-03-23T10:17:57;13.81;74.75
66740;DHT22;53653;52.188;8.602;2023-03-23T10:29:19;13.58;79.09
66740;DHT22;53653;52.188;8.602;2023-03-23T10:34:27;13.38;80.95
66740;DHT22;53653;52.188;8.602;2023-03-23T10:37:25;13.33;81.27
66740;DHT22;53653;52.188;8.602;2023-03-23T10:39:53;13.38;81.31
66740;DHT22;53653;52.188;8.602;2023-03-23T10:42:33;13.37;80.97
66740;DHT22;53653;52.188;8.602;2023-03-23T10:45:23;13.33;80.12
66740;DHT22;53653;52.188;8.602;2023-03-23T10:50:34;13.46;77.29
66740;DHT22;53653;52.188;8.602;2023-03-23T10:53:07;13.47;76.72
66740;DHT22;53653;52.188;8.602;2023-03-23T10:55:39;13.28;78.50
66740;DHT22;53653;52.188;8.602;2023-03-23T10:58:08;12.83;82.67
66740;DHT22;53653;52.188;8.602;2023-03-23T11:00:43;12.34;80.93
66740;DHT22;53653;52.188;8.602;2023-03-23T11:05:42;12.41;82.36
66740;DHT22;53653;52.188;8.602;2023-03-23T11:08:18;12.35;82.86
66740;DHT22;53653;52.188;8.602;2023-03-23T11:10:51;12.25;82.57
66740;DHT22;53653;52.188;8.602;2023-03-23T11:13:19;12.23;82.10
66740;DHT22;53653;52.188;8.602;2023-03-23T11:15:48;12.27;82.99
66740;DHT22;53653;52.188;8.602;2023-03-23T11:20:48;12.07;83.12
66740;DHT22;53653;52.188;8.602;2023-03-23T11:23:19;12.07;81.66
66740;DHT22;53653;52.188;8.602;2023-03-23T11:28:57;11.97;81.16
66740;DHT22;53653;52.188;8.602;2023-03-23T11:31:28;12.03;81.25
66740;DHT22;53653;52.188;8.602;2023-03-23T11:34:01;11.98;81.27
66740;DHT22;53653;52.188;8.602;2023-03-23T11:36:35;11.90;80.70
66740;DHT22;53653;52.188;8.602;2023-03-23T11:39:03;11.83;81.13
66740;DHT22;53653;52.188;8.602;2023-03-23T11:41:43;11.80;79.90
66740;DHT22;53653;52.188;8.602;2023-03-23T11:44:11;11.76;80.39
66740;DHT22;53653;52.188;8.602;2023-03-23T11:49:25;11.77;80.35
66740;DHT22;53653;52.188;8.602;2023-03-23T11:51:58;11.72;80.47
66740;DHT22;53653;52.188;8.602;2023-03-23T11:54:35;11.72;79.98
66740;DHT22;53653;52.188;8.602;2023-03-23T11:57:10;11.61;79.89
66740;DHT22;53653;52.188;8.602;2023-03-23T11:59:38;11.55;79.76
66740;DHT22;53653;52.188;8.602;2023-03-23T12:05:39;11.45;80.51
66740;DHT22;53653;52.188;8.602;2023-03-23T12:10:51;11.63;80.58
66740;DHT22;53653;52.188;8.602;2023-03-23T12:27:58;11.66;79.06
66740;DHT22;53653;52.188;8.602;2023-03-23T12:33:18;11.62;79.14
66740;DHT22;53653;52.188;8.602;2023-03-23T12:41:51;11.70;79.36
66740;DHT22;53653;52.188;8.602;2023-03-23T12:44:26;11.72;79.50
66740;DHT22;53653;52.188;8.602;2023-03-23T12:50:11;11.53;80.97
66740;DHT22;53653;52.188;8.602;2023-03-23T12:55:19;11.40;81.49
66740;DHT22;53653;52.188;8.602;2023-03-23T12:57:56;11.46;81.75
66740;DHT22;53653;52.188;8.602;2023-03-23T13:00:46;11.46;80.94
66740;DHT22;53653;52.188;8.602;2023-03-23T13:03:24;11.52;81.56
66740;DHT22;53653;52.188;8.602;2023-03-23T13:06:02;11.56;81.09
66740;DHT22;53653;52.188;8.602;2023-03-23T13:08:51;11.90;80.48
66740;DHT22;53653;52.188;8.602;2023-03-23T13:11:40;11.90;80.01
66740;DHT22;53653;52.188;8.602;2023-03-23T13:22:54;12.13;79.29
66740;DHT22;53653;52.188;8.602;2023-03-23T13:25:45;12.18;79.16
66740;DHT22;53653;52.188;8.602;2023-03-23T13:28:22;12.20;79.25
66740;DHT22;53653;52.188;8.602;2023-03-23T13:34:10;12.34;79.69
66740;DHT22;53653;52.188;8.602;2023-03-23T13:36:44;12.55;79.37
66740;DHT22;53653;52.188;8.602;2023-03-23T13:39:23;12.66;78.77
66740;DHT22;53653;52.188;8.602;2023-03-23T13:52:38;13.09;78.93
66740;DHT22;53653;52.188;8.602;2023-03-23T14:07:59;12.82;80.48
66740;DHT22;53653;52.188;8.602;2023-03-23T14:10:33;12.99;79.93
66740;DHT22;53653;52.188;8.602;2023-03-23T14:13:00;12.96;79.84
66740;DHT22;53653;52.188;8.602;2023-03-23T14:15:30;12.96;79.51
66740;DHT22;53653;52.188;8.602;2023-03-23T14:17:57;13.02;79.68
66740;DHT22;53653;52.188;8.602;2023-03-23T14:20:31;13.04;79.85
66740;DHT22;53653;52.188;8.602;2023-03-23T14:22:59;12.93;80.19
66740;DHT22;53653;52.188;8.602;2023-03-23T14:25:29;12.88;80.47
66740;DHT22;53653;52.188;8.602;2023-03-23T14:27:58;12.75;80.39
66740;DHT22;53653;52.188;8.602;2023-03-23T14:30:34;12.66;80.77
66740;DHT22;53653;52.188;8.602;2023-03-23T14:33:05;12.66;80.99
66740;DHT22;53653;52.188;8.602;2023-03-23T14:35:36;12.95;80.27
66740;DHT22;53653;52.188;8.602;2023-03-23T14:38:04;12.99;80.19
66740;DHT22;53653;52.188;8.602;2023-03-23T14:40:30;12.99;80.29
66740;DHT22;53653;52.188;8.602;2023-03-23T14:42:56;13.03;80.15
66740;DHT22;53653;52.188;8.602;2023-03-23T14:45:23;13.17;79.64
66740;DHT22;53653;52.188;8.602;2023-03-23T14:47:56;13.19;79.08
66740;DHT22;53653;52.188;8.602;2023-03-23T14:53:11;13.30;78.30
66740;DHT22;53653;52.188;8.602;2023-03-23T14:55:36;13.50;77.83
66740;DHT22;53653;52.188;8.602;2023-03-23T14:58:13;13.57;77.97
66740;DHT22;53653;52.188;8.602;2023-03-23T15:00:42;13.47;77.93
66740;DHT22;53653;52.188;8.602;2023-03-23T15:03:12;13.41;77.43
66740;DHT22;53653;52.188;8.602;2023-03-23T15:05:43;13.50;77.84
66740;DHT22;53653;52.188;8.602;2023-03-23T15:08:18;13.33;78.04
66740;DHT22;53653;52.188;8.602;2023-03-23T15:11:13;13.23;77.79
66740;DHT22;53653;52.188;8.602;2023-03-23T15:13:41;13.43;77.71
66740;DHT22;53653;52.188;8.602;2023-03-23T15:16:28;13.62;77.67
66740;DHT22;53653;52.188;8.602;2023-03-23T15:19:00;13.82;77.22
66740;DHT22;53653;52.188;8.602;2023-03-23T15:21:32;13.67;77.01
66740;DHT22;53653;52.188;8.602;2023-03-23T15:24:17;13.68;77.11
66740;DHT22;53653;52.188;8.602;2023-03-23T15:26:44;13.47;77.50
66740;DHT22;53653;52.188;8.602;2023-03-23T15:29:17;13.36;78.12
66740;DHT22;53653;52.188;8.602;2023-03-23T15:31:46;13.41;78.30
66740;DHT22;53653;52.188;8.602;2023-03-23T15:34:38;13.59;78.25
66740;DHT22;53653;52.188;8.602;2023-03-23T15:37:16;13.86;77.84
66740;DHT22;53653;52.188;8.602;2023-03-23T15:39:44;13.90;77.14
66740;DHT22;53653;52.188;8.602;2023-03-23T15:42:32;13.78;76.98
66740;DHT22;53653;52.188;8.602;2023-03-23T15:47:37;13.81;76.79
66740;DHT22;53653;52.188;8.602;2023-03-23T15:50:20;13.78;77.09
66740;DHT22;53653;52.188;8.602;2023-03-23T15:52:57;13.85;76.54
66740;DHT22;53653;52.188;8.602;2023-03-23T15:55:26;13.81;76.35
66740;DHT22;53653;52.188;8.602;2023-03-23T15:57:54;13.78;76.20
66740;DHT22;53653;52.188;8.602;2023-03-23T16:00:22;13.79;76.71
66740;DHT22;53653;52.188;8.602;2023-03-23T16:02:56;13.82;76.50
66740;DHT22;53653;52.188;8.602;2023-03-23T16:05:23;13.77;76.63
66740;DHT22;53653;52.188;8.602;2023-03-23T16:07:49;13.79;76.74
66740;DHT22;53653;52.188;8.602;2023-03-23T16:10:18;13.75;77.34
66740;DHT22;53653;52.188;8.602;2023-03-23T16:12:44;13.71;77.35
66740;DHT22;53653;52.188;8.602;2023-03-23T16:15:11;13.68;77.81
66740;DHT22;53653;52.188;8.602;2023-03-23T16:17:37;13.94;77.35
66740;DHT22;53653;52.188;8.602;2023-03-23T16:20:19;14.05;76.50
66740;DHT22;53653;52.188;8.602;2023-03-23T16:22:46;14.29;75.77
66740;DHT22;53653;52.188;8.602;2023-03-23T16:25:12;14.41;75.32
66740;DHT22;53653;52.188;8.602;2023-03-23T16:27:38;13.92;76.65
66740;DHT22;53653;52.188;8.602;2023-03-23T16:30:17;13.62;77.96
66740;DHT22;53653;52.188;8.602;2023-03-23T16:32:43;13.41;78.46
66740;DHT22;53653;52.188;8.602;2023-03-23T16:35:09;13.36;78.89
66740;DHT22;53653;52.188;8.602;2023-03-23T16:37:36;13.38;79.13
66740;DHT22;53653;52.188;8.602;2023-03-23T16:40:02;13.99;77.43
66740;DHT22;53653;52.188;8.602;2023-03-23T16:42:28;13.89;77.32
66740;DHT22;53653;52.188;8.602;2023-03-23T16:44:53;13.59;78.13
66740;DHT22;53653;52.188;8.602;2023-03-23T16:47:19;13.40;78.64
66740;DHT22;53653;52.188;8.602;2023-03-23T16:49:52;13.24;79.31
66740;DHT22;53653;52.188;8.602;2023-03-23T16:52:18;13.17;79.41
66740;DHT22;53653;52.188;8.602;2023-03-23T16:54:44;13.11;79.94
66740;DHT22;53653;52.188;8.602;2023-03-23T16:57:10;13.07;80.11
66740;DHT22;53653;52.188;8.602;2023-03-23T16:59:36;13.17;79.57
66740;DHT22;53653;52.188;8.602;2023-03-23T17:02:01;13.11;79.98
66740;DHT22;53653;52.188;8.602;2023-03-23T17:04:29;13.11;80.11
66740;DHT22;53653;52.188;8.602;2023-03-23T17:06:55;13.10;80.24
66740;DHT22;53653;52.188;8.602;2023-03-23T17:09:24;12.95;80.62
66740;DHT22;53653;52.188;8.602;2023-03-23T17:11:50;12.95;80.88
66740;DHT22;53653;52.188;8.602;2023-03-23T17:14:15;12.80;81.35
66740;DHT22;53653;52.188;8.602;2023-03-23T17:16:41;12.86;81.11
66740;DHT22;53653;52.188;8.602;2023-03-23T17:19:06;12.90;80.95
66740;DHT22;53653;52.188;8.602;2023-03-23T17:21:32;12.76;81.26
66740;DHT22;53653;52.188;8.602;2023-03-23T17:23:57;12.69;81.44
66740;DHT22;53653;52.188;8.602;2023-03-23T17:26:23;12.66;81.64
66740;DHT22;53653;52.188;8.602;2023-03-23T17:28:48;12.62;81.78
66740;DHT22;53653;52.188;8.602;2023-03-23T17:31:14;12.51;82.24
66740;DHT22;53653;52.188;8.602;2023-03-23T17:33:39;12.48;82.46
66740;DHT22;53653;52.188;8.602;2023-03-23T17:36:05;12.49;82.45
66740;DHT22;53653;52.188;8.602;2023-03-23T17:38:31;12.48;82.55
66740;DHT22;53653;52.188;8.602;2023-03-23T17:41:00;12.44;82.93
66740;DHT22;53653;52.188;8.602;2023-03-23T17:43:28;12.45;82.95
66740;DHT22;53653;52.188;8.602;2023-03-23T17:45:54;12.46;83.02
66740;DHT22;53653;52.188;8.602;2023-03-23T17:48:20;12.45;83.19
66740;DHT22;53653;52.188;8.602;2023-03-23T17:50:47;12.44;83.30
66740;DHT22;53653;52.188;8.602;2023-03-23T17:53:13;12.45;83.31
66740;DHT22;53653;52.188;8.602;2023-03-23T17:55:39;12.45;83.38
66740;DHT22;53653;52.188;8.602;2023-03-23T17:58:08;12.42;83.50
66740;DHT22;53653;52.188;8.602;2023-03-23T18:00:33;12.41;83.59
66740;DHT22;53653;52.188;8.602;2023-03-23T18:02:59;12.44;83.51
66740;DHT22;53653;52.188;8.602;2023-03-23T18:05:25;12.52;83.23
66740;DHT22;53653;52.188;8.602;2023-03-23T18:07:52;12.56;82.96
66740;DHT22;53653;52.188;8.602;2023-03-23T18:10:18;12.58;83.20
66740;DHT22;53653;52.188;8.602;2023-03-23T18:12:43;12.56;83.41
66740;DHT22;53653;52.188;8.602;2023-03-23T18:15:09;12.55;83.57